sensor_id;sensor_type;location;lat;lon;timestamp;pressure;altitude;pressure_sealevel;temperature;humidity
4085;BME280;2057;50.858;6.572;2022-08-04T00:01:02;100042.53;;;24.16;65.69
4085;BME280;2057;50.858;6.572;2022-08-04T00:03:32;100032.88;;;24.26;64.77
4085;BME280;2057;50.858;6.572;2022-08-04T00:06:04;100036.22;;;24.36;64.54
4085;BME280;2057;50.858;6.572;2022-08-04T00:11:01;100035.88;;;24.54;64.18
4085;BME280;2057;50.858;6.572;2022-08-04T00:13:29;100034.28;;;24.47;64.22
4085;BME280;2057;50.858;6.572;2022-08-04T00:16:03;100030.09;;;24.38;65.08
4085;BME280;2057;50.858;6.572;2022-08-04T00:18:56;100033.78;;;24.23;64.91
4085;BME280;2057;50.858;6.572;2022-08-04T00:21:21;100033.16;;;24.06;66.32
4085;BME280;2057;50.858;6.572;2022-08-04T00:23:49;100036.91;;;23.81;66.59
4085;BME280;2057;50.858;6.572;2022-08-04T00:26:16;100038.59;;;23.86;66.60
4085;BME280;2057;50.858;6.572;2022-08-04T00:28:42;100032.53;;;23.87;65.85
4085;BME280;2057;50.858;6.572;2022-08-04T00:31:13;100035.50;;;23.56;66.65
4085;BME280;2057;50.858;6.572;2022-08-04T00:33:42;100037.84;;;23.77;66.41
4085;BME280;2057;50.858;6.572;2022-08-04T00:36:11;100028.22;;;23.86;66.34
4085;BME280;2057;50.858;6.572;2022-08-04T00:38:39;100029.50;;;23.54;67.72
4085;BME280;2057;50.858;6.572;2022-08-04T00:43:40;100020.31;;;23.93;66.33
4085;BME280;2057;50.858;6.572;2022-08-04T00:51:41;100024.25;;;22.71;69.52
4085;BME280;2057;50.858;6.572;2022-08-04T01:00:20;100029.53;;;22.57;70.80
4085;BME280;2057;50.858;6.572;2022-08-04T01:11:35;100022.78;;;22.36;72.01
4085;BME280;2057;50.858;6.572;2022-08-04T01:16:55;100020.97;;;22.52;71.20
4085;BME280;2057;50.858;6.572;2022-08-04T01:30:26;100003.69;;;22.55;72.59
4085;BME280;2057;50.858;6.572;2022-08-04T01:35:39;100011.47;;;22.55;72.56
4085;BME280;2057;50.858;6.572;2022-08-04T01:38:18;100009.00;;;22.34;73.72
4085;BME280;2057;50.858;6.572;2022-08-04T01:40:51;100003.81;;;22.40;74.38
4085;BME280;2057;50.858;6.572;2022-08-04T01:43:17;100008.06;;;22.49;73.57
4085;BME280;2057;50.858;6.572;2022-08-04T01:45:49;100010.59;;;22.56;73.02
4085;BME280;2057;50.858;6.572;2022-08-04T01:48:15;100005.34;;;22.63;73.03
4085;BME280;2057;50.858;6.572;2022-08-04T01:50:43;100007.91;;;22.67;73.09
4085;BME280;2057;50.858;6.572;2022-08-04T01:53:09;100002.75;;;22.66;73.13
4085;BME280;2057;50.858;6.572;2022-08-04T01:55:36;99994.28;;;22.45;73.25
4085;BME280;2057;50.858;6.572;2022-08-04T01:58:04;99995.31;;;22.16;75.08
4085;BME280;2057;50.858;6.572;2022-08-04T02:00:30;99998.66;;;22.40;73.86
4085;BME280;2057;50.858;6.572;2022-08-04T02:02:55;100003.03;;;22.27;74.01
4085;BME280;2057;50.858;6.572;2022-08-04T02:05:24;99996.91;;;22.39;74.46
4085;BME280;2057;50.858;6.572;2022-08-04T02:11:19;99990.03;;;22.41;73.56
4085;BME280;2057;50.858;6.572;2022-08-04T02:16:49;99979.06;;;21.99;75.17
4085;BME280;2057;50.858;6.572;2022-08-04T02:21:47;99980.03;;;21.84;75.53
4085;BME280;2057;50.858;6.572;2022-08-04T02:24:17;99976.56;;;21.83;75.64
4085;BME280;2057;50.858;6.572;2022-08-04T02:26:48;99974.84;;;21.82;75.71
4085;BME280;2057;50.858;6.572;2022-08-04T02:29:50;99978.28;;;21.87;75.42
4085;BME280;2057;50.858;6.572;2022-08-04T02:32:38;99978.41;;;21.64;77.23
4085;BME280;2057;50.858;6.572;2022-08-04T02:35:08;99968.97;;;21.49;77.70
4085;BME280;2057;50.858;6.572;2022-08-04T02:37:37;99966.31;;;21.65;77.40
4085;BME280;2057;50.858;6.572;2022-08-04T02:40:06;99975.03;;;21.42;78.00
4085;BME280;2057;50.858;6.572;2022-08-04T02:42:33;99963.00;;;21.35;79.16
4085;BME280;2057;50.858;6.572;2022-08-04T02:44:59;99964.72;;;21.29;78.95
4085;BME280;2057;50.858;6.572;2022-08-04T02:47:27;99969.03;;;21.26;79.49
4085;BME280;2057;50.858;6.572;2022-08-04T02:49:55;99962.16;;;21.28;79.46
4085;BME280;2057;50.858;6.572;2022-08-04T02:52:22;99963.06;;;21.19;80.07
4085;BME280;2057;50.858;6.572;2022-08-04T02:54:53;99959.53;;;21.34;79.13
4085;BME280;2057;50.858;6.572;2022-08-04T02:57:22;99950.94;;;21.37;78.52
4085;BME280;2057;50.858;6.572;2022-08-04T03:00:09;99958.72;;;21.27;79.13
4085;BME280;2057;50.858;6.572;2022-08-04T03:08:36;99941.38;;;21.60;77.34
4085;BME280;2057;50.858;6.572;2022-08-04T04:09:21;99946.75;;;21.03;79.56
4085;BME280;2057;50.858;6.572;2022-08-04T04:14:36;99952.81;;;20.88;79.88
4085;BME280;2057;50.858;6.572;2022-08-04T04:39:51;99950.19;;;20.94;79.93
4085;BME280;2057;50.858;6.572;2022-08-04T04:45:11;99946.78;;;20.33;83.94
4085;BME280;2057;50.858;6.572;2022-08-04T04:47:49;99957.09;;;20.57;81.48
4085;BME280;2057;50.858;6.572;2022-08-04T04:50:35;99958.84;;;20.58;82.15
4085;BME280;2057;50.858;6.572;2022-08-04T04:56:04;99963.13;;;20.88;80.80
4085;BME280;2057;50.858;6.572;2022-08-04T04:58:32;99963.09;;;20.94;81.06
4085;BME280;2057;50.858;6.572;2022-08-04T05:01:19;99962.25;;;21.03;80.77
4085;BME280;2057;50.858;6.572;2022-08-04T05:09:26;99970.78;;;21.24;80.20
4085;BME280;2057;50.858;6.572;2022-08-04T05:14:29;99969.84;;;21.39;79.42
4085;BME280;2057;50.858;6.572;2022-08-04T05:17:19;99975.97;;;21.11;80.91
4085;BME280;2057;50.858;6.572;2022-08-04T05:20:06;99969.16;;;20.87;81.63
4085;BME280;2057;50.858;6.572;2022-08-04T05:22:41;99969.16;;;20.78;82.20
4085;BME280;2057;50.858;6.572;2022-08-04T05:25:20;99973.47;;;20.79;82.06
4085;BME280;2057;50.858;6.572;2022-08-04T05:30:37;99971.75;;;20.84;82.82
4085;BME280;2057;50.858;6.572;2022-08-04T05:33:13;99976.06;;;20.76;83.07
4085;BME280;2057;50.858;6.572;2022-08-04T05:35:42;99974.31;;;20.89;83.14
4085;BME280;2057;50.858;6.572;2022-08-04T05:38:13;99968.28;;;21.00;82.23
4085;BME280;2057;50.858;6.572;2022-08-04T05:40:40;99980.25;;;21.19;81.52
4085;BME280;2057;50.858;6.572;2022-08-04T05:43:08;99975.94;;;21.25;81.59
4085;BME280;2057;50.858;6.572;2022-08-04T05:45:34;99963.03;;;21.22;82.21
4085;BME280;2057;50.858;6.572;2022-08-04T05:48:04;99968.19;;;21.28;82.14
4085;BME280;2057;50.858;6.572;2022-08-04T05:50:32;99970.72;;;21.41;81.80
4085;BME280;2057;50.858;6.572;2022-08-04T05:52:58;99964.66;;;21.54;81.58
4085;BME280;2057;50.858;6.572;2022-08-04T05:55:26;99955.22;;;21.44;81.97
4085;BME280;2057;50.858;6.572;2022-08-04T05:57:54;99961.19;;;21.58;82.51
4085;BME280;2057;50.858;6.572;2022-08-04T06:00:20;99960.19;;;21.86;80.51
4085;BME280;2057;50.858;6.572;2022-08-04T06:02:48;99961.75;;;22.07;79.22
4085;BME280;2057;50.858;6.572;2022-08-04T06:05:15;99951.34;;;22.16;78.95
4085;BME280;2057;50.858;6.572;2022-08-04T06:07:45;99952.13;;;22.31;77.70
4085;BME280;2057;50.858;6.572;2022-08-04T06:10:11;99957.22;;;22.43;78.25
4085;BME280;2057;50.858;6.572;2022-08-04T06:12:46;99960.69;;;22.39;79.18
4085;BME280;2057;50.858;6.572;2022-08-04T06:15:17;99969.25;;;22.47;78.76
4085;BME280;2057;50.858;6.572;2022-08-04T06:18:03;99959.56;;;22.71;77.59
4085;BME280;2057;50.858;6.572;2022-08-04T06:20:34;99961.25;;;22.74;77.07
4085;BME280;2057;50.858;6.572;2022-08-04T06:23:05;99961.16;;;22.83;76.83
4085;BME280;2057;50.858;6.572;2022-08-04T06:25:35;99959.41;;;22.88;76.98
4085;BME280;2057;50.858;6.572;2022-08-04T06:28:04;99961.88;;;22.96;76.86
4085;BME280;2057;50.858;6.572;2022-08-04T06:30:31;99949.78;;;23.01;77.54
4085;BME280;2057;50.858;6.572;2022-08-04T06:32:59;99951.38;;;23.13;77.37
4085;BME280;2057;50.858;6.572;2022-08-04T06:35:27;99956.50;;;23.14;77.56
4085;BME280;2057;50.858;6.572;2022-08-04T06:37:54;99956.44;;;23.24;76.30
4085;BME280;2057;50.858;6.572;2022-08-04T06:40:21;99959.03;;;23.24;76.70
4085;BME280;2057;50.858;6.572;2022-08-04T06:42:49;99959.75;;;23.37;76.53
4085;BME280;2057;50.858;6.572;2022-08-04T06:45:15;99964.75;;;23.50;76.36
4085;BME280;2057;50.858;6.572;2022-08-04T06:47:42;99957.72;;;23.59;76.12
4085;BME280;2057;50.858;6.572;2022-08-04T06:50:09;99962.84;;;23.63;75.62
4085;BME280;2057;50.858;6.572;2022-08-04T06:52:36;99969.63;;;23.74;75.09
4085;BME280;2057;50.858;6.572;2022-08-04T06:55:02;99963.50;;;23.79;76.03
4085;BME280;2057;50.858;6.572;2022-08-04T06:57:29;99965.22;;;23.79;75.37
4085;BME280;2057;50.858;6.572;2022-08-04T07:00:07;99966.81;;;23.89;75.20
4085;BME280;2057;50.858;6.572;2022-08-04T07:02:54;99965.03;;;23.96;74.74
4085;BME280;2057;50.858;6.572;2022-08-04T07:05:20;99965.69;;;24.07;73.62
4085;BME280;2057;50.858;6.572;2022-08-04T07:07:46;99965.53;;;24.20;73.38
4085;BME280;2057;50.858;6.572;2022-08-04T07:10:13;99965.38;;;24.29;72.79
4085;BME280;2057;50.858;6.572;2022-08-04T07:12:39;99962.69;;;24.35;72.08
4085;BME280;2057;50.858;6.572;2022-08-04T07:15:07;99968.59;;;24.43;71.46
4085;BME280;2057;50.858;6.572;2022-08-04T07:17:34;99965.06;;;24.48;71.47
4085;BME280;2057;50.858;6.572;2022-08-04T07:20:00;99965.59;;;24.68;70.74
4085;BME280;2057;50.858;6.572;2022-08-04T07:22:26;99965.50;;;24.73;69.92
4085;BME280;2057;50.858;6.572;2022-08-04T07:24:56;99967.94;;;24.84;69.15
4085;BME280;2057;50.858;6.572;2022-08-04T07:27:23;99966.28;;;24.80;69.56
4085;BME280;2057;50.858;6.572;2022-08-04T07:29:49;99964.47;;;24.83;70.26
4085;BME280;2057;50.858;6.572;2022-08-04T07:32:15;99967.66;;;24.99;69.73
4085;BME280;2057;50.858;6.572;2022-08-04T07:34:43;99967.44;;;25.10;68.67
4085;BME280;2057;50.858;6.572;2022-08-04T07:37:08;99962.97;;;25.17;68.12
4085;BME280;2057;50.858;6.572;2022-08-04T07:39:34;99959.22;;;25.30;68.46
4085;BME280;2057;50.858;6.572;2022-08-04T07:42:02;99960.78;;;25.41;68.10
4085;BME280;2057;50.858;6.572;2022-08-04T07:44:31;99959.72;;;25.51;67.49
4085;BME280;2057;50.858;6.572;2022-08-04T07:46:57;99963.00;;;25.59;67.47
4085;BME280;2057;50.858;6.572;2022-08-04T07:49:23;99952.28;;;25.73;67.03
4085;BME280;2057;50.858;6.572;2022-08-04T07:51:51;99957.97;;;25.89;67.17
4085;BME280;2057;50.858;6.572;2022-08-04T07:54:17;99957.88;;;25.94;66.85
4085;BME280;2057;50.858;6.572;2022-08-04T07:56:43;99964.50;;;26.07;66.43
4085;BME280;2057;50.858;6.572;2022-08-04T07:59:09;99970.38;;;26.17;65.59
4085;BME280;2057;50.858;6.572;2022-08-04T08:01:35;99964.06;;;26.27;65.63
4085;BME280;2057;50.858;6.572;2022-08-04T08:04:02;99964.53;;;26.43;64.69
4085;BME280;2057;50.858;6.572;2022-08-04T08:06:29;99958.22;;;26.52;64.71
4085;BME280;2057;50.858;6.572;2022-08-04T08:08:55;99960.66;;;26.58;64.96
4085;BME280;2057;50.858;6.572;2022-08-04T08:11:21;99957.59;;;26.79;64.72
4085;BME280;2057;50.858;6.572;2022-08-04T08:13:47;99958.19;;;26.88;63.97
4085;BME280;2057;50.858;6.572;2022-08-04T08:16:13;99952.72;;;26.98;63.33
4085;BME280;2057;50.858;6.572;2022-08-04T08:18:38;99945.03;;;27.23;63.05
4085;BME280;2057;50.858;6.572;2022-08-04T08:21:04;99947.13;;;27.43;61.83
4085;BME280;2057;50.858;6.572;2022-08-04T08:23:31;99933.88;;;27.78;61.78
4085;BME280;2057;50.858;6.572;2022-08-04T08:25:58;99940.50;;;28.16;60.76
4085;BME280;2057;50.858;6.572;2022-08-04T08:28:24;99940.84;;;28.32;57.90
4085;BME280;2057;50.858;6.572;2022-08-04T08:30:50;99932.84;;;28.62;57.96
4085;BME280;2057;50.858;6.572;2022-08-04T08:33:16;99936.09;;;28.71;57.83
4085;BME280;2057;50.858;6.572;2022-08-04T08:36:02;99936.16;;;28.93;57.11
4085;BME280;2057;50.858;6.572;2022-08-04T08:58:37;99949.59;;;30.22;49.88
4085;BME280;2057;50.858;6.572;2022-08-04T09:09:50;99948.78;;;30.19;47.61
4085;BME280;2057;50.858;6.572;2022-08-04T09:17:50;99953.22;;;31.21;45.27
4085;BME280;2057;50.858;6.572;2022-08-04T09:23:07;99952.56;;;31.16;44.17
4085;BME280;2057;50.858;6.572;2022-08-04T09:25:57;99950.59;;;31.21;43.63
4085;BME280;2057;50.858;6.572;2022-08-04T09:28:28;99947.78;;;31.25;40.01
4085;BME280;2057;50.858;6.572;2022-08-04T09:31:15;99942.53;;;31.25;40.35
4085;BME280;2057;50.858;6.572;2022-08-04T09:33:53;99953.03;;;31.25;42.48
4085;BME280;2057;50.858;6.572;2022-08-04T09:39:14;99958.31;;;31.81;40.39
4085;BME280;2057;50.858;6.572;2022-08-04T09:42:02;99955.22;;;31.90;41.00
4085;BME280;2057;50.858;6.572;2022-08-04T09:47:32;99962.63;;;31.82;41.50
4085;BME280;2057;50.858;6.572;2022-08-04T09:55:54;99967.53;;;31.90;41.80
4085;BME280;2057;50.858;6.572;2022-08-04T09:59:03;99962.28;;;31.90;42.48
4085;BME280;2057;50.858;6.572;2022-08-04T10:01:34;99960.41;;;32.29;42.13
4085;BME280;2057;50.858;6.572;2022-08-04T10:04:03;99962.81;;;32.33;43.13
4085;BME280;2057;50.858;6.572;2022-08-04T10:20:13;99986.25;;;31.82;42.59
4085;BME280;2057;50.858;6.572;2022-08-04T10:23:00;99980.31;;;31.79;42.60
4085;BME280;2057;50.858;6.572;2022-08-04T10:25:41;99994.47;;;31.94;42.08
4085;BME280;2057;50.858;6.572;2022-08-04T10:28:12;99990.91;;;32.31;41.29
4085;BME280;2057;50.858;6.572;2022-08-04T10:30:44;99997.78;;;32.34;42.89
4085;BME280;2057;50.858;6.572;2022-08-04T10:36:17;100003.06;;;32.34;41.11
4085;BME280;2057;50.858;6.572;2022-08-04T10:38:58;100013.56;;;32.51;40.74
4085;BME280;2057;50.858;6.572;2022-08-04T10:41:34;100007.69;;;32.64;40.77
4085;BME280;2057;50.858;6.572;2022-08-04T10:46:51;100009.78;;;32.40;41.55
4085;BME280;2057;50.858;6.572;2022-08-04T10:49:20;100008.69;;;32.44;42.06
4085;BME280;2057;50.858;6.572;2022-08-04T10:54:15;100009.22;;;32.33;42.69
4085;BME280;2057;50.858;6.572;2022-08-04T10:56:45;100013.41;;;32.37;43.53
4085;BME280;2057;50.858;6.572;2022-08-04T10:59:28;100017.03;;;32.52;43.00
4085;BME280;2057;50.858;6.572;2022-08-04T11:02:00;100013.88;;;32.63;43.04
4085;BME280;2057;50.858;6.572;2022-08-04T11:04:41;100012.19;;;32.62;42.93
4085;BME280;2057;50.858;6.572;2022-08-04T11:07:09;100007.84;;;32.26;43.78
4085;BME280;2057;50.858;6.572;2022-08-04T11:09:38;100011.00;;;31.96;44.54
4085;BME280;2057;50.858;6.572;2022-08-04T11:12:15;100006.72;;;32.12;44.41
4085;BME280;2057;50.858;6.572;2022-08-04T11:15:03;100011.84;;;32.33;44.18
4085;BME280;2057;50.858;6.572;2022-08-04T11:17:34;100018.56;;;31.84;44.85
4085;BME280;2057;50.858;6.572;2022-08-04T11:20:24;100026.69;;;31.59;45.18
4085;BME280;2057;50.858;6.572;2022-08-04T11:22:57;100026.78;;;31.38;45.03
4085;BME280;2057;50.858;6.572;2022-08-04T11:25:28;100027.94;;;31.12;45.87
4085;BME280;2057;50.858;6.572;2022-08-04T11:28:05;100021.75;;;30.92;46.13
4085;BME280;2057;50.858;6.572;2022-08-04T11:30:47;100012.72;;;30.58;46.81
4085;BME280;2057;50.858;6.572;2022-08-04T11:33:26;100003.50;;;30.48;46.96
4085;BME280;2057;50.858;6.572;2022-08-04T11:36:02;100012.53;;;30.63;47.61
4085;BME280;2057;50.858;6.572;2022-08-04T11:38:37;100018.22;;;30.52;48.29
4085;BME280;2057;50.858;6.572;2022-08-04T11:41:09;100011.16;;;30.54;48.66
4085;BME280;2057;50.858;6.572;2022-08-04T11:43:47;100018.66;;;30.41;50.24
4085;BME280;2057;50.858;6.572;2022-08-04T11:46:22;100023.19;;;30.15;49.62
4085;BME280;2057;50.858;6.572;2022-08-04T11:48:59;100031.69;;;29.98;50.15
4085;BME280;2057;50.858;6.572;2022-08-04T11:51:26;100034.13;;;30.03;51.02
4085;BME280;2057;50.858;6.572;2022-08-04T11:53:53;100038.56;;;30.23;50.76
4085;BME280;2057;50.858;6.572;2022-08-04T11:56:19;100046.94;;;30.11;50.54
4085;BME280;2057;50.858;6.572;2022-08-04T11:58:44;100032.25;;;30.07;51.21
4085;BME280;2057;50.858;6.572;2022-08-04T12:01:24;100037.47;;;30.07;51.13
4085;BME280;2057;50.858;6.572;2022-08-04T12:06:29;100050.28;;;29.92;51.74
4085;BME280;2057;50.858;6.572;2022-08-04T12:09:27;100050.88;;;29.75;51.28
4085;BME280;2057;50.858;6.572;2022-08-04T12:20:24;100056.44;;;29.89;52.09
4085;BME280;2057;50.858;6.572;2022-08-04T12:22:53;100053.50;;;29.99;51.59
4085;BME280;2057;50.858;6.572;2022-08-04T12:25:25;100061.72;;;29.88;51.97
4085;BME280;2057;50.858;6.572;2022-08-04T12:28:05;100059.97;;;29.88;53.00
4085;BME280;2057;50.858;6.572;2022-08-04T12:30:38;100056.72;;;29.82;52.22
4085;BME280;2057;50.858;6.572;2022-08-04T12:33:11;100044.34;;;29.87;52.78
4085;BME280;2057;50.858;6.572;2022-08-04T12:35:58;100044.69;;;29.78;51.97
4085;BME280;2057;50.858;6.572;2022-08-04T12:38:26;100041.50;;;29.93;51.59
4085;BME280;2057;50.858;6.572;2022-08-04T12:40:57;100035.00;;;30.03;51.23
4085;BME280;2057;50.858;6.572;2022-08-04T12:43:40;100041.81;;;30.08;52.01
4085;BME280;2057;50.858;6.572;2022-08-04T12:46:10;100033.97;;;29.84;51.94
4085;BME280;2057;50.858;6.572;2022-08-04T12:48:38;100030.31;;;29.88;52.45
4085;BME280;2057;50.858;6.572;2022-08-04T12:51:07;100029.25;;;29.94;52.10
4085;BME280;2057;50.858;6.572;2022-08-04T12:53:40;100022.94;;;29.99;52.34
4085;BME280;2057;50.858;6.572;2022-08-04T12:56:11;100019.41;;;30.23;51.03
4085;BME280;2057;50.858;6.572;2022-08-04T12:58:40;100025.09;;;30.32;51.21
4085;BME280;2057;50.858;6.572;2022-08-04T13:01:08;100027.06;;;30.48;50.60
4085;BME280;2057;50.858;6.572;2022-08-04T13:03:57;100037.94;;;30.61;50.74
4085;BME280;2057;50.858;6.572;2022-08-04T13:06:25;100032.31;;;30.48;50.20
4085;BME280;2057;50.858;6.572;2022-08-04T13:08:52;100042.75;;;30.72;50.30
4085;BME280;2057;50.858;6.572;2022-08-04T13:11:20;100035.91;;;30.67;50.24
4085;BME280;2057;50.858;6.572;2022-08-04T13:13:46;100037.72;;;30.45;51.49
4085;BME280;2057;50.858;6.572;2022-08-04T13:16:15;100044.84;;;30.63;50.64
4085;BME280;2057;50.858;6.572;2022-08-04T13:18:46;100033.44;;;30.64;51.42
4085;BME280;2057;50.858;6.572;2022-08-04T13:21:16;100032.03;;;30.97;50.71
4085;BME280;2057;50.858;6.572;2022-08-04T13:23:43;100030.16;;;31.21;50.45
4085;BME280;2057;50.858;6.572;2022-08-04T13:26:13;100025.13;;;31.36;49.72
4085;BME280;2057;50.858;6.572;2022-08-04T13:28:42;100024.50;;;31.50;49.61
4085;BME280;2057;50.858;6.572;2022-08-04T13:31:10;100018.69;;;31.62;49.52
4085;BME280;2057;50.858;6.572;2022-08-04T13:33:39;100031.03;;;31.41;48.94
4085;BME280;2057;50.858;6.572;2022-08-04T13:36:07;100022.66;;;30.91;50.32
4085;BME280;2057;50.858;6.572;2022-08-04T13:38:33;100028.09;;;31.07;50.30
4085;BME280;2057;50.858;6.572;2022-08-04T13:41:02;100019.94;;;31.15;51.02
4085;BME280;2057;50.858;6.572;2022-08-04T13:43:32;100019.16;;;31.13;50.52
4085;BME280;2057;50.858;6.572;2022-08-04T13:46:03;100028.25;;;31.44;49.79
4085;BME280;2057;50.858;6.572;2022-08-04T13:48:31;100031.44;;;31.32;50.50
4085;BME280;2057;50.858;6.572;2022-08-04T13:51:02;100022.75;;;30.90;50.72
4085;BME280;2057;50.858;6.572;2022-08-04T13:53:32;100029.63;;;30.72;51.10
4085;BME280;2057;50.858;6.572;2022-08-04T13:55:59;100023.53;;;30.49;51.35
4085;BME280;2057;50.858;6.572;2022-08-04T13:58:32;100030.53;;;30.28;51.73
4085;BME280;2057;50.858;6.572;2022-08-04T14:03:38;100023.00;;;30.20;51.82
4085;BME280;2057;50.858;6.572;2022-08-04T14:06:31;100027.97;;;30.04;51.94
4085;BME280;2057;50.858;6.572;2022-08-04T14:09:02;100037.06;;;29.95;51.51
4085;BME280;2057;50.858;6.572;2022-08-04T14:11:35;100025.94;;;29.88;51.77
4085;BME280;2057;50.858;6.572;2022-08-04T14:14:13;100023.91;;;29.97;52.06
4085;BME280;2057;50.858;6.572;2022-08-04T14:16:53;100017.59;;;30.02;52.11
4085;BME280;2057;50.858;6.572;2022-08-04T14:19:19;100026.47;;;29.98;51.65
4085;BME280;2057;50.858;6.572;2022-08-04T14:21:44;100024.00;;;29.94;51.66
4085;BME280;2057;50.858;6.572;2022-08-04T14:24:10;100023.00;;;29.98;50.56
4085;BME280;2057;50.858;6.572;2022-08-04T14:26:35;100032.63;;;29.73;50.71
4085;BME280;2057;50.858;6.572;2022-08-04T14:29:15;100032.19;;;29.84;50.81
4085;BME280;2057;50.858;6.572;2022-08-04T14:31:40;100020.38;;;29.74;50.58
4085;BME280;2057;50.858;6.572;2022-08-04T14:34:06;100026.75;;;29.67;50.38
4085;BME280;2057;50.858;6.572;2022-08-04T14:36:39;100029.88;;;29.53;50.12
4085;BME280;2057;50.858;6.572;2022-08-04T14:39:05;100034.56;;;29.45;50.79
4085;BME280;2057;50.858;6.572;2022-08-04T14:41:47;100021.19;;;29.29;50.61
4085;BME280;2057;50.858;6.572;2022-08-04T14:44:13;100024.13;;;29.19;51.04
4085;BME280;2057;50.858;6.572;2022-08-04T14:46:55;100027.38;;;29.26;51.39
4085;BME280;2057;50.858;6.572;2022-08-04T14:49:21;100025.41;;;29.33;51.65
4085;BME280;2057;50.858;6.572;2022-08-04T14:51:59;100024.53;;;29.08;52.50
4085;BME280;2057;50.858;6.572;2022-08-04T14:54:28;100028.78;;;29.11;51.31
4085;BME280;2057;50.858;6.572;2022-08-04T14:56:56;100031.50;;;29.08;52.77
4085;BME280;2057;50.858;6.572;2022-08-04T14:59:23;100027.28;;;29.04;52.50
4085;BME280;2057;50.858;6.572;2022-08-04T15:01:49;100031.00;;;28.96;53.84
4085;BME280;2057;50.858;6.572;2022-08-04T15:04:14;100036.19;;;28.98;53.40
4085;BME280;2057;50.858;6.572;2022-08-04T15:06:40;100031.81;;;28.99;53.76
4085;BME280;2057;50.858;6.572;2022-08-04T15:09:08;100023.44;;;28.89;54.51
4085;BME280;2057;50.858;6.572;2022-08-04T15:11:35;100027.81;;;28.88;55.17
4085;BME280;2057;50.858;6.572;2022-08-04T15:14:03;100027.28;;;28.78;56.14
4085;BME280;2057;50.858;6.572;2022-08-04T15:16:31;100027.38;;;28.75;56.36
4085;BME280;2057;50.858;6.572;2022-08-04T15:18:57;100022.66;;;28.60;57.38
4085;BME280;2057;50.858;6.572;2022-08-04T15:21:25;100018.16;;;28.63;57.82
4085;BME280;2057;50.858;6.572;2022-08-04T15:23:52;100022.78;;;28.57;58.15
4085;BME280;2057;50.858;6.572;2022-08-04T15:26:24;100018.91;;;28.42;59.01
4085;BME280;2057;50.858;6.572;2022-08-04T15:28:55;100016.38;;;28.39;59.44
4085;BME280;2057;50.858;6.572;2022-08-04T15:31:21;100015.28;;;28.46;59.17
4085;BME280;2057;50.858;6.572;2022-08-04T15:33:48;100008.63;;;28.36;59.69
4085;BME280;2057;50.858;6.572;2022-08-04T15:36:36;100026.06;;;28.35;59.92
4085;BME280;2057;50.858;6.572;2022-08-04T15:39:04;100044.72;;;28.23;59.54
4085;BME280;2057;50.858;6.572;2022-08-04T15:41:40;100047.91;;;28.04;60.48
4085;BME280;2057;50.858;6.572;2022-08-04T15:47:11;100041.56;;;28.13;60.46
4085;BME280;2057;50.858;6.572;2022-08-04T15:49:37;100046.38;;;27.97;61.78
4085;BME280;2057;50.858;6.572;2022-08-04T15:52:07;100043.88;;;27.94;61.70
4085;BME280;2057;50.858;6.572;2022-08-04T15:54:33;100037.47;;;28.04;60.72
4085;BME280;2057;50.858;6.572;2022-08-04T15:57:03;100044.91;;;27.88;61.95
4085;BME280;2057;50.858;6.572;2022-08-04T16:02:37;100040.03;;;27.76;63.08
4085;BME280;2057;50.858;6.572;2022-08-04T16:08:11;100030.03;;;28.20;61.03
4085;BME280;2057;50.858;6.572;2022-08-04T16:10:42;100031.38;;;28.32;61.12
4085;BME280;2057;50.858;6.572;2022-08-04T16:13:11;100041.94;;;28.29;61.38
4085;BME280;2057;50.858;6.572;2022-08-04T16:15:48;100033.81;;;28.38;60.37
4085;BME280;2057;50.858;6.572;2022-08-04T16:20:53;100023.75;;;28.26;60.34
4085;BME280;2057;50.858;6.572;2022-08-04T16:23:46;100026.38;;;28.26;60.87
4085;BME280;2057;50.858;6.572;2022-08-04T16:29:25;100030.59;;;28.30;61.21
4085;BME280;2057;50.858;6.572;2022-08-04T16:34:33;100002.47;;;28.11;63.82
4085;BME280;2057;50.858;6.572;2022-08-04T16:37:00;100005.22;;;28.05;64.26
4085;BME280;2057;50.858;6.572;2022-08-04T16:39:27;99995.03;;;28.26;64.02
4085;BME280;2057;50.858;6.572;2022-08-04T16:41:52;100006.22;;;29.08;61.22
4085;BME280;2057;50.858;6.572;2022-08-04T16:44:34;100014.84;;;29.82;60.15
4085;BME280;2057;50.858;6.572;2022-08-04T16:47:04;100025.78;;;30.38;58.21
4085;BME280;2057;50.858;6.572;2022-08-04T16:49:31;100023.34;;;30.76;54.94
4085;BME280;2057;50.858;6.572;2022-08-04T16:52:01;100013.00;;;30.73;56.18
4085;BME280;2057;50.858;6.572;2022-08-04T16:54:32;100008.19;;;30.62;56.19
4085;BME280;2057;50.858;6.572;2022-08-04T16:56:59;100011.59;;;30.21;56.72
4085;BME280;2057;50.858;6.572;2022-08-04T16:59:24;100016.59;;;30.48;56.52
4085;BME280;2057;50.858;6.572;2022-08-04T17:01:52;100009.44;;;30.74;55.63
4085;BME280;2057;50.858;6.572;2022-08-04T17:04:30;100000.00;;;30.70;55.91
4085;BME280;2057;50.858;6.572;2022-08-04T17:07:01;100010.34;;;30.52;55.98
4085;BME280;2057;50.858;6.572;2022-08-04T17:09:27;100007.91;;;30.47;55.72
4085;BME280;2057;50.858;6.572;2022-08-04T17:11:54;100004.28;;;29.85;56.78
4085;BME280;2057;50.858;6.572;2022-08-04T17:14:24;100000.72;;;30.10;56.68
4085;BME280;2057;50.858;6.572;2022-08-04T17:16:52;99990.31;;;30.08;57.96
4085;BME280;2057;50.858;6.572;2022-08-04T17:19:17;99985.47;;;30.62;56.19
4085;BME280;2057;50.858;6.572;2022-08-04T17:21:43;99980.22;;;30.62;55.80
4085;BME280;2057;50.858;6.572;2022-08-04T17:24:09;99976.94;;;30.78;55.60
4085;BME280;2057;50.858;6.572;2022-08-04T17:26:36;99984.69;;;30.81;55.58
4085;BME280;2057;50.858;6.572;2022-08-04T17:29:03;99987.81;;;30.69;55.82
4085;BME280;2057;50.858;6.572;2022-08-04T17:31:30;99990.56;;;30.86;55.50
4085;BME280;2057;50.858;6.572;2022-08-04T17:33:59;99991.47;;;31.06;55.32
4085;BME280;2057;50.858;6.572;2022-08-04T17:36:29;99983.63;;;31.44;53.42
4085;BME280;2057;50.858;6.572;2022-08-04T17:39:00;99983.09;;;31.37;54.33
4085;BME280;2057;50.858;6.572;2022-08-04T17:41:28;99985.06;;;31.51;52.93
4085;BME280;2057;50.858;6.572;2022-08-04T17:44:02;99983.47;;;31.66;52.80
4085;BME280;2057;50.858;6.572;2022-08-04T17:46:35;99987.91;;;31.07;54.38
4085;BME280;2057;50.858;6.572;2022-08-04T17:51:55;99983.91;;;30.36;56.94
4085;BME280;2057;50.858;6.572;2022-08-04T17:54:31;99987.91;;;30.45;56.38
4085;BME280;2057;50.858;6.572;2022-08-04T17:57:11;99985.53;;;30.18;57.78